.
WxDataArchive / Data Records for 2007-09-13
2007-09-12 September 2007 2007-09-14

Data Records for Thursday, 13 September 2007

Time	Temp	Chill	HIndex	Humid	Dewpt	 Wind 	HiWind	WindDir	Rain 	Barom 
-----	----	-----	------	-----	-----	------	------	-------	-----	----- 
00:00	52.3	52.3	52.3	88	48.9	0	1	22	0.00	30.100 
00:05	52.3	52.3	52.3	88	48.9	0	1	22	0.00	30.103 
00:10	52.0	52.0	52.0	88	48.6	0	1	22	0.00	30.102 
00:15	51.9	51.9	51.9	88	48.5	0	0	---	0.00	30.101 
00:20	51.7	51.7	51.7	89	48.6	0	1	22	0.00	30.100 
00:25	51.7	51.7	51.7	89	48.6	0	1	22	0.00	30.098 
00:30	51.7	51.7	51.7	89	48.6	0	1	22	0.00	30.097 
00:35	51.7	51.7	51.7	89	48.6	0	1	22	0.00	30.097 
00:40	51.6	51.6	51.6	89	48.5	0	1	22	0.00	30.095 
00:45	51.6	51.6	51.6	89	48.5	0	1	22	0.00	30.095 
00:50	51.6	51.6	51.6	89	48.5	1	2	22	0.00	30.094 
00:55	51.6	51.6	51.6	89	48.5	0	1	22	0.00	30.095 
01:00	51.4	51.4	51.4	89	48.3	0	1	22	0.00	30.097 
01:05	51.4	51.4	51.4	89	48.3	0	3	22	0.00	30.096 
01:10	51.4	51.4	51.4	89	48.3	0	1	22	0.00	30.095 
01:15	51.3	51.3	51.3	89	48.2	0	1	22	0.00	30.095 
01:20	51.1	51.1	51.1	90	48.3	0	1	22	0.00	30.095 
01:25	51.0	51.0	51.0	90	48.2	0	1	22	0.00	30.095 
01:30	51.0	51.0	51.0	90	48.2	0	1	22	0.00	30.095 
01:35	50.8	50.8	50.8	90	48.0	0	0	---	0.00	30.094 
01:40	50.7	50.7	50.7	91	48.2	0	0	---	0.00	30.094 
01:45	50.4	50.4	50.4	91	47.9	0	0	---	0.00	30.094 
01:50	50.2	50.2	50.2	91	47.7	0	0	---	0.00	30.094 
01:55	49.9	49.9	49.9	91	47.4	0	0	---	0.00	30.094 
02:00	49.8	49.8	49.8	91	47.3	0	0	---	0.00	30.095 
02:05	49.6	49.6	49.6	92	47.4	0	0	---	0.00	30.096 
02:10	49.5	49.5	49.5	92	47.3	0	0	---	0.00	30.095 
02:15	49.4	49.4	49.4	92	47.2	0	0	---	0.00	30.097 
02:20	49.2	49.2	49.2	93	47.3	0	0	---	0.00	30.096 
02:25	49.2	49.2	49.2	93	47.3	0	0	---	0.00	30.096 
02:30	49.1	49.1	49.1	93	47.2	0	0	---	0.00	30.097 
02:35	49.1	49.1	49.1	94	47.4	0	0	---	0.00	30.096 
02:40	48.9	48.9	48.9	94	47.2	0	0	---	0.00	30.096 
02:45	48.8	48.8	48.8	94	47.1	0	0	---	0.00	30.096 
02:50	48.8	48.8	48.8	94	47.1	0	1	22	0.00	30.095 
02:55	48.9	48.9	48.9	95	47.5	0	1	22	0.00	30.094 
03:00	48.9	48.9	48.9	94	47.2	0	0	---	0.00	30.094 
03:05	48.8	48.8	48.8	94	47.1	0	0	---	0.00	30.093 
03:10	48.8	48.8	48.8	94	47.1	0	0	---	0.00	30.092 
03:15	48.6	48.6	48.6	95	47.2	0	0	---	0.00	30.092 
03:20	48.6	48.6	48.6	95	47.2	0	0	---	0.00	30.093 
03:25	48.5	48.5	48.5	95	47.1	0	0	---	0.00	30.093 
03:30	48.5	48.5	48.5	95	47.1	0	0	---	0.00	30.093 
03:35	48.3	48.3	48.3	95	46.9	0	0	---	0.00	30.096 
03:40	48.2	48.2	48.2	95	46.8	0	0	---	0.00	30.097 
03:45	48.0	48.0	48.0	95	46.6	0	0	---	0.00	30.097 
03:50	48.0	48.0	48.0	95	46.6	0	0	---	0.00	30.096 
03:55	47.9	47.9	47.9	95	46.5	0	0	---	0.00	30.097 
04:00	47.9	47.9	47.9	95	46.5	0	0	---	0.00	30.097 
04:05	47.7	47.7	47.7	95	46.3	0	0	---	0.00	30.098 
04:10	47.7	47.7	47.7	96	46.6	0	0	---	0.00	30.096 
04:15	47.6	47.6	47.6	96	46.5	0	0	---	0.00	30.097 
04:20	47.6	47.6	47.6	96	46.5	0	0	---	0.00	30.099 
04:25	47.4	47.4	47.4	96	46.3	0	0	---	0.00	30.099 
04:30	47.3	47.3	47.3	96	46.2	0	0	---	0.00	30.101 
04:35	47.3	47.3	47.3	96	46.2	0	0	---	0.00	30.101 
04:40	47.1	47.1	47.1	96	46.0	0	0	---	0.00	30.099 
04:45	47.1	47.1	47.1	96	46.0	0	0	---	0.00	30.098 
04:50	47.0	47.0	47.0	96	45.9	0	0	---	0.00	30.099 
04:55	46.8	46.8	46.8	96	45.7	0	0	---	0.00	30.097 
05:00	46.7	46.7	46.7	96	45.6	0	0	---	0.00	30.096 
05:05	46.8	46.8	46.8	96	45.7	0	1	22	0.00	30.095 
05:10	47.6	47.6	47.6	96	46.5	0	1	22	0.00	30.096 
05:15	47.9	47.9	47.9	96	46.8	0	1	22	0.00	30.097 
05:20	48.0	48.0	48.0	96	46.9	0	0	---	0.00	30.097 
05:25	48.0	48.0	48.0	96	46.9	0	1	22	0.00	30.098 
05:30	48.0	48.0	48.0	96	46.9	0	1	22	0.00	30.098 
05:35	48.0	48.0	48.0	96	46.9	0	1	22	0.00	30.097 
05:40	48.0	48.0	48.0	96	46.9	0	1	22	0.00	30.097 
05:45	48.2	48.2	48.2	96	47.1	0	1	22	0.00	30.096 
05:50	48.2	48.2	48.2	96	47.1	0	1	22	0.00	30.096 
05:55	48.2	48.2	48.2	96	47.1	0	1	22	0.00	30.097 
06:00	48.2	48.2	48.2	96	47.1	0	1	22	0.00	30.098 
06:05	48.2	48.2	48.2	96	47.1	0	1	22	0.00	30.101 
06:10	48.2	48.2	48.2	96	47.1	0	1	22	0.00	30.101 
06:15	48.0	48.0	48.0	96	46.9	0	1	22	0.00	30.100 
06:20	48.0	48.0	48.0	96	46.9	0	1	22	0.00	30.099 
06:25	48.0	48.0	48.0	96	46.9	0	1	22	0.00	30.099 
06:30	48.0	48.0	48.0	96	46.9	0	1	22	0.00	30.098 
06:35	48.0	48.0	48.0	96	46.9	0	1	22	0.00	30.099 
06:40	48.0	48.0	48.0	96	46.9	0	1	22	0.00	30.100 
06:45	48.2	48.2	48.2	96	47.1	0	1	22	0.00	30.099 
06:50	48.3	48.3	48.3	97	47.5	0	1	22	0.00	30.099 
06:55	48.5	48.5	48.5	97	47.7	0	2	22	0.00	30.098 
07:00	48.6	48.6	48.6	97	47.8	0	1	22	0.00	30.097 
07:05	48.9	48.9	48.9	97	48.1	0	1	22	0.00	30.102 
07:10	49.4	49.4	49.4	97	48.6	0	1	22	0.00	30.102 
07:15	50.1	50.1	50.1	97	49.3	0	1	22	0.00	30.102 
07:20	50.8	50.8	50.8	97	50.0	0	1	22	0.00	30.101 
07:25	51.1	51.1	51.1	96	50.0	0	2	22	0.00	30.101 
07:30	51.6	51.6	51.6	95	50.2	0	1	22	0.00	30.103 
07:35	51.9	51.9	51.9	92	49.6	0	2	45	0.00	30.103 
07:40	52.0	52.0	52.0	92	49.7	1	2	45	0.00	30.101 
07:45	52.3	52.3	52.3	91	49.8	1	3	45	0.00	30.100 
07:50	52.5	52.5	52.5	90	49.7	1	2	90	0.00	30.098 
07:55	52.5	52.5	52.5	90	49.7	1	3	90	0.00	30.097 
08:00	52.8	52.8	52.8	91	50.2	1	2	90	0.00	30.094 
08:05	53.1	53.1	53.1	91	50.5	0	1	90	0.00	30.096 
08:10	53.3	53.3	53.3	89	50.1	1	3	90	0.00	30.094 
08:15	53.6	53.6	53.6	89	50.4	1	3	90	0.00	30.092 
08:20	54.1	54.1	54.1	88	50.6	1	4	90	0.00	30.091 
08:25	54.4	54.4	54.4	87	50.6	0	2	90	0.00	30.090 
08:30	54.8	54.8	54.8	86	50.7	1	2	90	0.00	30.089 
08:35	55.4	55.4	55.4	84	50.6	2	3	90	0.00	30.086 
08:40	55.9	55.9	55.9	85	51.5	0	1	90	0.00	30.085 
08:45	56.3	56.3	56.3	83	51.2	0	2	90	0.00	30.086 
08:50	56.9	56.9	56.9	82	51.5	1	3	90	0.00	30.082 
08:55	58.1	58.1	58.1	79	51.6	1	3	90	0.00	30.081 
09:00	59.2	59.2	59.2	76	51.6	1	2	90	0.00	30.080 
09:05	60.2	60.2	60.2	74	51.9	1	3	90	0.00	30.081 
09:10	61.0	61.0	61.0	72	51.9	1	3	90	0.00	30.079 
09:15	61.6	61.6	61.6	71	52.1	1	5	90	0.00	30.078 
09:20	62.0	62.0	62.0	72	52.9	1	4	68	0.00	30.077 
09:25	62.6	62.6	62.6	71	53.1	0	3	90	0.00	30.076 
09:30	63.4	63.4	63.4	69	53.0	1	3	90	0.00	30.075 
09:35	63.1	63.1	63.1	69	52.8	2	5	90	0.00	30.075 
09:40	63.5	63.5	63.5	68	52.7	1	2	90	0.00	30.074 
09:45	64.2	64.2	64.2	68	53.4	1	4	90	0.00	30.073 
09:50	64.7	64.7	64.7	67	53.5	1	4	68	0.00	30.068 
09:55	64.8	64.8	64.8	66	53.2	2	4	90	0.00	30.067 
10:00	65.5	65.5	65.5	66	53.8	1	4	90	0.00	30.065 
10:05	66.3	66.3	66.3	62	52.9	1	4	112	0.00	30.070 
10:10	66.6	66.6	66.6	61	52.7	1	4	90	0.00	30.068 
10:15	67.1	67.1	67.1	62	53.6	1	4	90	0.00	30.065 
10:20	67.6	67.6	67.6	59	52.8	1	3	90	0.00	30.067 
10:25	68.1	68.1	68.1	58	52.8	1	4	90	0.00	30.068 
10:30	68.6	68.6	68.6	57	52.7	1	4	112	0.00	30.064 
10:35	68.9	68.9	68.9	60	54.4	1	3	112	0.00	30.062 
10:40	69.3	69.3	69.3	56	52.9	1	3	112	0.00	30.060 
10:45	69.6	69.6	69.6	57	53.7	1	4	112	0.00	30.057 
10:50	70.1	70.1	70.1	56	53.7	1	5	112	0.00	30.055 
10:55	70.3	70.3	70.3	52	51.8	1	4	90	0.00	30.054 
11:00	70.8	70.8	70.8	53	52.8	1	3	45	0.00	30.051 
11:05	70.9	70.9	70.9	53	52.9	1	2	45	0.00	30.047 
11:10	71.3	71.3	71.3	52	52.8	1	5	90	0.00	30.043 
11:15	71.6	71.6	71.6	52	53.0	1	2	90	0.00	30.040 
11:20	71.8	71.8	71.8	51	52.7	1	3	90	0.00	30.038 
11:25	72.1	72.1	72.1	50	52.4	1	4	90	0.00	30.039 
11:30	72.1	72.1	72.1	49	51.9	1	3	90	0.00	30.038 
11:35	72.7	72.7	72.7	50	53.0	1	3	90	0.00	30.037 
11:40	72.7	72.7	72.7	48	51.9	1	3	270	0.00	30.037 
11:45	72.8	72.8	72.8	44	49.6	1	4	90	0.00	30.036 
11:50	73.0	73.0	73.0	47	51.6	1	3	90	0.00	30.034 
11:55	73.3	73.3	73.3	48	52.4	1	3	112	0.00	30.031 
12:00	73.9	73.9	73.9	45	51.2	1	3	112	0.00	30.026 
12:05	73.3	73.3	73.3	46	51.3	2	5	112	0.00	30.027 
12:10	73.7	73.7	73.7	47	52.2	1	3	90	0.00	30.027 
12:15	73.9	73.9	73.9	46	51.8	2	5	112	0.00	30.026 
12:20	74.0	74.0	74.0	45	51.3	1	6	90	0.00	30.024 
12:25	74.0	74.0	74.0	46	51.9	2	4	112	0.00	30.023 
12:30	74.0	74.0	74.0	44	50.7	2	5	112	0.00	30.022 
12:35	74.2	74.2	74.2	43	50.2	1	4	112	0.00	30.021 
12:40	74.7	74.7	74.7	50	54.8	0	3	270	0.00	30.015 
12:45	75.1	75.1	77.7	47	53.5	1	7	248	0.00	30.014 
12:50	75.1	75.1	77.6	41	49.8	2	4	90	0.00	30.012 
12:55	74.9	74.9	74.9	41	49.6	1	4	112	0.00	30.011 
13:00	74.6	74.6	74.6	40	48.7	1	3	90	0.00	30.008 
13:05	74.7	74.7	74.7	47	53.1	1	4	90	0.00	30.010 
13:10	74.9	74.9	74.9	42	50.2	1	3	315	0.00	30.008 
13:15	75.1	75.1	77.6	42	50.4	1	4	112	0.00	30.007 
13:20	75.1	75.1	77.6	43	51.1	1	4	270	0.00	30.006 
13:25	75.3	75.3	77.7	44	51.9	1	4	90	0.00	30.004 
13:30	75.6	75.6	77.8	43	51.5	1	4	90	0.00	29.998 
13:35	76.0	76.0	78.0	46	53.7	1	3	292	0.00	29.995 
13:40	76.0	76.0	77.7	38	48.5	3	9	90	0.00	29.992 
13:45	75.8	75.8	77.7	38	48.4	1	4	90	0.00	29.990 
13:50	75.8	75.8	77.8	43	51.7	1	4	90	0.00	29.989 
13:55	75.8	75.8	77.7	40	49.7	2	5	248	0.00	29.987 
14:00	75.8	75.8	77.6	37	47.7	2	4	90	0.00	29.988 
14:05	76.0	76.0	77.9	41	50.6	1	3	90	0.00	29.983 
14:10	76.1	76.1	77.9	41	50.7	1	4	90	0.00	29.980 
14:15	76.3	76.3	77.7	36	47.4	2	6	90	0.00	29.977 
14:20	76.3	76.3	77.8	37	48.1	1	5	90	0.00	29.976 
14:25	76.3	76.3	77.9	40	50.2	2	6	158	0.00	29.974 
14:30	76.5	76.5	78.1	43	52.3	1	6	292	0.00	29.967 
14:35	76.5	76.5	78.0	39	49.7	2	6	248	0.00	29.965 
14:40	76.5	76.5	77.8	35	46.8	2	5	90	0.00	29.962 
14:45	76.5	76.5	77.9	38	49.0	2	7	90	0.00	29.959 
14:50	76.5	76.5	77.9	38	49.0	2	5	90	0.00	29.958 
14:55	76.3	76.3	77.8	37	48.1	2	5	90	0.00	29.957 
15:00	76.3	76.3	77.8	38	48.8	2	7	90	0.00	29.957 
15:05	76.7	76.7	78.1	40	50.5	1	2	22	0.00	29.954 
15:10	77.2	77.2	78.3	39	50.3	0	2	0	0.00	29.952 
15:15	77.0	77.0	78.0	36	48.0	2	6	90	0.00	29.949 
15:20	76.7	76.7	77.9	35	47.0	2	5	90	0.00	29.946 
15:25	76.8	76.8	78.0	37	48.5	1	4	90	0.00	29.947 
15:30	76.8	76.8	78.1	39	49.9	1	4	45	0.00	29.947 
15:35	77.0	77.0	78.1	37	48.7	1	4	112	0.00	29.945 
15:40	77.0	77.0	78.1	37	48.7	1	4	112	0.00	29.943 
15:45	76.8	76.8	77.9	36	47.8	2	4	270	0.00	29.944 
15:50	76.8	76.8	78.1	40	50.6	1	3	90	0.00	29.942 
15:55	76.7	76.7	77.9	35	47.0	2	6	270	0.00	29.941 
16:00	76.5	76.5	77.8	36	47.5	1	4	270	0.00	29.938 
16:05	76.7	76.7	78.1	39	49.9	0	2	270	0.00	29.938 
16:10	76.7	76.7	77.9	35	47.0	1	5	270	0.00	29.935 
16:15	76.8	76.8	78.0	38	49.2	0	4	248	0.00	29.934 
16:20	76.7	76.7	78.0	37	48.4	1	4	68	0.00	29.932 
16:25	76.7	76.7	77.9	36	47.7	1	4	90	0.00	29.931 
16:30	76.5	76.5	77.8	35	46.8	1	3	112	0.00	29.929 
16:35	76.5	76.5	77.9	38	49.0	1	4	248	0.00	29.928 
16:40	76.3	76.3	77.8	38	48.8	1	3	22	0.00	29.929 
16:45	76.1	76.1	77.8	38	48.6	1	3	270	0.00	29.927 
16:50	76.0	76.0	77.7	37	47.8	1	3	68	0.00	29.925 
16:55	76.0	76.0	77.7	38	48.5	1	3	248	0.00	29.924 
17:00	76.0	76.0	77.7	38	48.5	1	3	68	0.00	29.919 
17:05	75.8	75.8	77.6	36	46.9	1	5	270	0.00	29.918 
17:10	75.6	75.6	77.6	39	48.9	1	2	270	0.00	29.916 
17:15	75.6	75.6	77.6	37	47.5	1	3	270	0.00	29.916 
17:20	75.4	75.4	77.4	36	46.6	1	3	248	0.00	29.918 
17:25	75.3	75.3	77.5	38	47.9	0	2	292	0.00	29.917 
17:30	74.9	74.9	74.9	39	48.3	0	2	248	0.00	29.916 
17:35	74.7	74.7	74.7	39	48.1	0	1	248	0.00	29.916 
17:40	74.6	74.6	74.6	37	46.6	1	4	248	0.00	29.916 
17:45	74.6	74.6	74.6	37	46.6	0	2	270	0.00	29.917 
17:50	74.4	74.4	74.4	37	46.4	1	2	270	0.00	29.917 
17:55	74.2	74.2	74.2	39	47.6	0	1	270	0.00	29.918 
18:00	73.9	73.9	73.9	39	47.4	0	0	---	0.00	29.918 
18:05	73.7	73.7	73.7	40	47.9	0	1	270	0.00	29.917 
18:10	73.3	73.3	73.3	40	47.5	0	0	---	0.00	29.918 
18:15	73.0	73.0	73.0	42	48.5	0	0	---	0.00	29.916 
18:20	72.5	72.5	72.5	42	48.1	0	0	---	0.00	29.915 
18:25	72.1	72.1	72.1	43	48.4	0	0	---	0.00	29.916 
18:30	71.8	71.8	71.8	44	48.7	0	0	---	0.00	29.915 
18:35	71.1	71.1	71.1	48	50.4	0	0	---	0.00	29.915 
18:40	70.6	70.6	70.6	50	51.0	0	0	---	0.00	29.915 
18:45	70.1	70.1	70.1	52	51.6	0	0	---	0.00	29.916 
18:50	69.4	69.4	69.4	54	52.0	0	0	---	0.00	29.916 
18:55	68.6	68.6	68.6	53	50.8	0	0	---	0.00	29.917 
19:00	67.8	67.8	67.8	54	50.5	0	0	---	0.00	29.919 
19:05	67.1	67.1	67.1	58	51.8	0	0	---	0.00	29.916 
19:10	66.4	66.4	66.4	59	51.6	0	0	---	0.00	29.916 
19:15	65.8	65.8	65.8	60	51.5	0	0	---	0.00	29.917 
19:20	65.2	65.2	65.2	62	51.8	0	0	---	0.00	29.918 
19:25	64.7	64.7	64.7	64	52.2	0	0	---	0.00	29.918 
19:30	64.0	64.0	64.0	64	51.6	0	0	---	0.00	29.919 
19:35	63.7	63.7	63.7	65	51.7	0	0	---	0.00	29.919 
19:40	63.2	63.2	63.2	67	52.1	0	0	---	0.00	29.919 
19:45	62.7	62.7	62.7	68	52.0	0	0	---	0.00	29.919 
19:50	62.3	62.3	62.3	69	52.0	0	0	---	0.00	29.920 
19:55	62.0	62.0	62.0	70	52.1	0	0	---	0.00	29.920 
20:00	61.6	61.6	61.6	71	52.1	0	0	---	0.00	29.920 
20:05	61.2	61.2	61.2	72	52.1	0	0	---	0.00	29.916 
20:10	60.9	60.9	60.9	73	52.2	0	0	---	0.00	29.917 
20:15	60.5	60.5	60.5	74	52.2	0	0	---	0.00	29.917 
20:20	60.2	60.2	60.2	76	52.6	0	0	---	0.00	29.918 
20:25	59.9	59.9	59.9	77	52.7	0	0	---	0.00	29.917 
20:30	59.6	59.6	59.6	77	52.4	0	0	---	0.00	29.918 
20:35	59.3	59.3	59.3	78	52.4	0	0	---	0.00	29.918 
20:40	59.0	59.0	59.0	79	52.5	0	0	---	0.00	29.917 
20:45	58.9	58.9	58.9	80	52.7	0	0	---	0.00	29.917 
20:50	58.6	58.6	58.6	81	52.8	0	0	---	0.00	29.917 
20:55	58.4	58.4	58.4	81	52.6	0	0	---	0.00	29.919 
21:00	58.3	58.3	58.3	82	52.8	0	0	---	0.00	29.918 
21:05	58.1	58.1	58.1	82	52.6	0	0	---	0.00	29.912 
21:10	58.0	58.0	58.0	83	52.9	0	0	---	0.00	29.911 
21:15	57.6	57.6	57.6	83	52.5	0	0	---	0.00	29.911 
21:20	57.5	57.5	57.5	83	52.4	0	0	---	0.00	29.912 
21:25	57.3	57.3	57.3	84	52.5	0	0	---	0.00	29.912 
21:30	57.0	57.0	57.0	85	52.5	0	0	---	0.00	29.912 
21:35	56.9	56.9	56.9	85	52.4	0	0	---	0.00	29.912 
21:40	56.7	56.7	56.7	87	52.9	0	0	---	0.00	29.912 
21:45	56.6	56.6	56.6	87	52.8	0	0	---	0.00	29.910 
21:50	56.5	56.5	56.5	87	52.7	0	0	---	0.00	29.911 
21:55	56.3	56.3	56.3	87	52.5	0	0	---	0.00	29.911 
22:00	56.2	56.2	56.2	88	52.7	0	0	---	0.00	29.907 
22:05	56.0	56.0	56.0	88	52.5	0	0	---	0.00	29.902 
22:10	55.9	55.9	55.9	88	52.4	0	0	---	0.00	29.903 
22:15	55.7	55.7	55.7	88	52.2	0	0	---	0.00	29.905 
22:20	55.6	55.6	55.6	88	52.1	0	0	---	0.00	29.905 
22:25	55.4	55.4	55.4	88	51.9	0	0	---	0.00	29.904 
22:30	55.3	55.3	55.3	88	51.8	0	0	---	0.00	29.907 
22:35	55.1	55.1	55.1	89	51.9	0	0	---	0.00	29.907 
22:40	55.0	55.0	55.0	89	51.8	0	0	---	0.00	29.908 
22:45	54.8	54.8	54.8	89	51.6	0	0	---	0.00	29.907 
22:50	54.8	54.8	54.8	90	51.9	0	0	---	0.00	29.905 
22:55	54.7	54.7	54.7	90	51.8	0	0	---	0.00	29.902 
23:00	54.5	54.5	54.5	90	51.6	0	0	---	0.00	29.903 
23:05	54.5	54.5	54.5	90	51.6	0	0	---	0.00	29.903 
23:10	54.4	54.4	54.4	90	51.5	0	0	---	0.00	29.904 
23:15	54.2	54.2	54.2	90	51.3	0	0	---	0.00	29.904 
23:20	54.2	54.2	54.2	90	51.3	0	0	---	0.00	29.901 
23:25	54.1	54.1	54.1	90	51.2	0	0	---	0.00	29.904 
23:30	54.1	54.1	54.1	91	51.5	0	0	---	0.00	29.899 
23:35	53.9	53.9	53.9	91	51.3	0	0	---	0.00	29.898 
23:40	53.9	53.9	53.9	91	51.3	0	0	---	0.00	29.898 
23:45	53.8	53.8	53.8	91	51.2	0	0	---	0.00	29.896 
23:50	53.6	53.6	53.6	91	51.0	0	0	---	0.00	29.897 
23:55	53.5	53.5	53.5	91	50.9	0	0	---	0.00	29.896 

CoCoRaHS
IN-AL-39
A2 Web Hosting
Creative Commons License
GoDaddy
Look for:

loaded 2017-10-19 20:20:21 • last modified 2010-11-18 10:43:29
Privacy PolicyDisclaimer
• wx.awcolley.com is powered by PmWiki v.2002016 •
• all content (unless otherwise noted) © 2017 A W Colley